Mount Gilead, OH

12:27 AM EDT on August 31, 2014 (GMT -0400)
Shauck - OH 314 at US 42 | Change Station
CLOSE
Current Station
Personal Weather Station
Location: Mount Gilead, OH
Elevation: 1365 ft
Nearby Weather Stations

Elev 1365 ft 40.62 °N, 82.66 °W | Updated 8 seconds ago

Mostly Cloudy
Mostly Cloudy
72.1 °F
Feels Like 70 °F
N
0.0
Wind Variable Wind from South
Gusts 0.0 mph

Today
High -- | Low -- °F
--% Chance of Precip.
Yesterday
High -- | Low -- °F
Precip. -- in
6:57 AM 8:04 PM
Waxing Crescent, 27% visible
Pressure 30.01 in
Visibility 6.0 miles
Clouds Few 10000 ft
Heat Index 70 °F
Dew Point 68 °F
Humidity 88%
Rainfall 0.00 in
Snow Depth Not available.
UV 0 out of 12
Pollen 10.60 out of 12
Ozone Good
PM2.5 Moderate
Flu Activity Not available.
METAR KMNN 310353Z AUTO 21009KT 6SM HZ FEW100 23/20 A3003 RMK AO2 SLP160 T02330200 TSNO

More Conditions Fewer Conditions

Pressure 30.01 in
Visibility 6.0 miles
Clouds Few 10000 ft
Heat Index 70 °F
Dew Point 68 °F
Humidity 88%
Rainfall 0.00 in
Snow Depth Not available.
UV 0 out of 12
Pollen 10.60 out of 12
Ozone Good
PM2.5 Moderate
Flu Activity Not available.
METAR KMNN 310353Z AUTO 21009KT 6SM HZ FEW100 23/20 A3003 RMK AO2 SLP160 T02330200 TSNO

More Conditions Fewer Conditions

10-Day Weather Forecast

Almanac

Astronomy

Aug. 31, 2014 Rise Set
Actual Time 6:57 AM EDT 8:04 PM EDT
Civil Twilight 6:29 AM EDT 8:32 PM EDT
Nautical Twilight 5:55 AM EDT 9:06 PM EDT
Astronomical Twilight 5:20 AM EDT 9:41 PM EDT
Moon 12:44 PM EDT 11:17 PM EDT
Length of Visible Light 14h 03m
Length of Day
13h 07m
Tomorrow will be 2m 34s shorter.
Waxing Crescent, 27% of the Moon is Illuminated
Today
Waxing Crescent
Sep 2
First Quarter
Sep 8
Full
Sep 15
Last Quarter
Sep 24
New

Yesterday's Extremes

State Highs State Lows

Community

WunderPhotos

Upload Photos

1,748,776 photos uploaded!

Nearby

Air Quality

  Air Quality AQ Index Pollutant
Yesterday Moderate
OZONE
Yesterday Good
PM2.5
Current Moderate
PM2.5
Current Good
OZONE
Saturday Moderate
OZONE
Saturday Moderate
PM2.5
Sunday Good
OZONE
Sunday Good
PM2.5
Monday Good
PM2.5
Monday Good
OZONE
Tuesday Good
OZONE
Tuesday Good
PM2.5
Wednesday Moderate
PM2.5
Wednesday Moderate
OZONE
Thursday Moderate
OZONE
Thursday Moderate
PM2.5

Snow Depth

Station Depth Elevation
No new snow has been reported.

Earthquake Activity

City Distance Mag. Time & Date
No recent earthquake activity has been reported nearby.
Minimum magnitude displayed is 2.5.

Coastal Water Temperatures

Place Temperature
No Stations Reporting

Nearby Weather Stations